Vue régionale

METAR et TAF

Jeudi 05 décembre 2019 à 21h25

Visibilités horizontales observées à différents aéroports. Les observations (METAR) et prévisions aéronautiques (TAF) complètes sont disponibles en cliquant sur l’icône correspondante.

  • Luxemburg (ELLX)

    Taf: TAF ELLX 051700Z 0518/0624 21005KT 0200 FZFG VV002 PROB30 TEMPO 0519/0522 1500 BR BECMG 0607/0608 23012KT 5000 BR BKN006 TEMPO 0608/0620 2000 -RADZ OVC004 PROB30 TEMPO 0609/0612 1200 -FZRA=

    Metar: METAR ELLX 051950Z 21006KT 160V230 0200 R24/1000V1600U FZFG VV002 M03/M03 Q1021 TEMPO 0350=

  • Spangdahlem (ETAD)

    Taf: TAF AMD ETAD 051707Z 0517/0619 21006KT 0800 FZFG BKN002 600001 QNH3007INS TEMPO 0517/0521 3200 BR SCT003 BECMG 0601/0602 21006KT 5000 BR BKN007 610071 QNH3002INS TEMPO 0605/0607 0800 FZFG 600002 BECMG 0608/0609 21006KT 8000 BR BKN010 610102 QNH2995INS BECMG 0611/0612 22010G18KT 9999 NSW BKN015 QNH2997INS BECMG 0616/0617 22012G20KT 8000 -SHRA SCT005 BKN010 OVC020 620607 QNH2993INS TX02/0612Z TNM03/0517Z=

    Metar: nil

  • Metz/Nancy (LFJL)

    Taf: TAF AMD LFJL 051823Z 0518/0618 21006KT 3000 BR BKN003 TEMPO 0518/0608 0200 FZFG VV/// BECMG 0610/0612 BKN013 PROB40 TEMPO 0612/0615 BKN008 TEMPO 0615/0618 21015G25KT -RA=

    Metar: nil

  • Saarbrücken/Intl (EDDR)

    Taf: TAF EDDR 051700Z 0518/0618 21006KT 5000 BR SCT004 TEMPO 0518/0520 1200 BCFG OVC002 BECMG 0520/0522 0400 FZFG VV001 BECMG 0606/0609 22011KT 1200 BR BKN004 BECMG 0609/0611 2500 BR BKN007 PROB30 TEMPO 0615/0618 23015G25KT 1200 RA BKN003=

    Metar: nil

  • Hahn (EDFH)

    Taf: TAF AMD EDFH 051955Z 0519/0618 24005KT CAVOK TEMPO 0519/0611 2000 BR SCT002 BKN004 PROB40 TEMPO 0519/0609 0200 FZFG VV001 BECMG 0603/0605 24012KT BECMG 0608/0610 24015G25KT BKN012 PROB30 TEMPO 0611/0618 1200 RA BKN003=

    Metar: nil

  • Ramstein (ETAR)

    Taf: TAF AMD ETAR 051933Z 0519/0624 VRB06KT 0600 FZFG OVC001 QNH3015INS TEMPO 0519/0521 1600 BR OVC002 BECMG 0520/0521 24006KT 3200 BR BKN007 QNH3013INS BECMG 0600/0601 24012KT 9999 NSW BKN020 620201 QNH3000INS BECMG 0613/0614 23012G20KT 9999 SCT030 QNH2989INS TEMPO 0620/0622 24020G35KT 9000 -SHRA BKN025 610306 520003 BECMG 0621/0622 23012G20KT 8000 -SHRA OVC015 610207 QNH2985INS TX05/0613Z TNM03/0519Z=

    Metar: nil

  • Nancy/Ochey (LFSO)

    Taf: TAF LFSO 052000Z NIL=

    Metar: nil

  • Liège Bierset (EBLG)

    Taf: TAF EBLG 051720Z 0518/0624 20010KT 6000 SCT011 TEMPO 0518/0605 2200 BR BKN005 PROB40 TEMPO 0618/0605 0500 FZFG BKN002 BECMG 0604/0606 21016G30KT BKN011 TEMPO 0605/0618 2000 RA RADZ BKN004 PROB30 TEMPO 0605/0607 2000 FZRA BKN004 PROB30 TEMPO 0622/0624 SCT014 PROB30 TEMPO 0622/0623 4000 SHRA BKN014TCU BECMG 0621/0623 25011KT=

    Metar: nil

  • Saint-Dizier (LFSI)

    Taf: TAF LFSI 052000Z 0521/0621 VRB03KT 0300 FZFG VV/// TEMPO 0521/0608 1500 BR OVC002 BECMG 0608/0610 2000 BR BKN002 BKN005 BECMG 0612/0614 20010G20KT 4500 -RASN BKN010 BKN030 BKN050 BECMG 0615/0618 20015G25KT 6000 RA BKN005 BKN010 BKN020=

    Metar: nil

  • Maastricht/Zuid Limburg (EHBK)

    Taf: TAF EHBK 051721Z 0518/0624 19010KT 3500 BR BKN006 BECMG 0523/0602 22015G25KT 5000 BKN012 BECMG 0606/0609 4000 RADZ BKN006 BECMG 0612/0615 7000 -DZ TEMPO 0615/0621 2500 DZ TEMPO 0621/0624 5000 -SHRA SCT008 SCT022CB=

    Metar: nil

  • Köln/Köln-Bonn (EDDK)

    Taf: TAF EDDK 051700Z 0518/0624 15008KT CAVOK TEMPO 0607/0622 4000 RA BECMG 0615/0618 21010KT=

    Metar: METAR EDDK 051950Z 14007KT CAVOK M00/M02 Q1020 NOSIG=

  • Charleroi (EBCI)

    Taf: TAF EBCI 051720Z 0518/0624 20010KT 6000 SCT011 TEMPO 0518/0603 2200 BR BKN005 PROB40 TEMPO 0618/0603 0500 FG BKN002 BECMG 0602/0604 BKN011 TEMPO 0603/0614 2000 RA RADZ BKN004 PROB30 TEMPO 0603/0605 2000 FZRA BKN004 BECMG 0604/0606 21016G30KT PROB30 TEMPO 0616/0624 SCT014 PROB30 TEMPO 0621/0623 4000 SHRA BKN014TCU BECMG 0621/0623 25011KT=

    Metar: nil

  • Wiesbaden (ETOU)

    Taf: TAF ETOU 052013Z 0520/0702 23006KT 0800 FZFG VV000 620001 QNH3017INS TEMPO 0521/0608 1000 BR BKN004 BECMG 0608/0609 21009KT 1200 BR BKN006 QNH3006INS BECMG 0616/0617 21012G18KT 8000 -SHRA OVC015 QNH2986INS TX04/0612Z TNM04/0606Z=

    Metar: nil

  • Karlsruhe/Baden-Baden (EDSB)

    Taf: TAF EDSB 051700Z 0518/0618 19004KT 0200 FZFG VV001 TEMPO 0518/0524 0600 FZFG OVC002 TEMPO 0600/0608 1200 BR BKN004 BECMG 0608/0611 21010KT 6000 NSW SCT004=

    Metar: nil

  • Chalons/Vatry (LFOK)

    Taf: TAF LFOK 051700Z 0518/0618 20005KT 0600 FZFG VV/// TEMPO 0518/0609 0300 BECMG 0609/0611 20015KT 2000 BR OVC002 TEMPO 0612/0618 1200 DZRA=

    Metar: nil

  • Frankfurt/Main (EDDF)

    Taf: TAF EDDF 051700Z 0518/0624 20004KT 0250 FZFG VV001 PROB30 TEMPO 0518/0603 0700 FZFG OVC004 BECMG 0603/0606 20010KT 3000 BR BKN008 TEMPO 0606/0610 BKN012 PROB30 TEMPO 0609/0624 20015G25KT BECMG 0610/0613 6000 BKN012 PROB30 TEMPO 0616/0624 3000 RA BKN006=

    Metar: METAR COR EDDF 051950Z 23007KT 190V260 0500 R25R/1000N R25C/0900D R25L/0900N R18/0800U FZFG VV/// M01/M01 Q1022 NOSIG=

  • Brüssel (EBBR)

    Taf: TAF EBBR 051720Z 0518/0624 20010KT 8000 SCT014 TEMPO 0518/0602 2500 BR BKN005 BECMG 0601/0603 BKN012 TEMPO 0602/0614 3800 RA RADZ BKN007 BECMG 0604/0606 21016G30KT BECMG 0613/0615 SCT015 PROB30 TEMPO 0620/0623 4000 SHRA BKN014TCU BECMG 0621/0623 25011KT=

    Metar: METAR EBBR 051950Z 21007KT 8000 NSC 01/M00 Q1019 NOSIG=

  • Düsseldorf (EDDL)

    Taf: TAF EDDL 051700Z 0518/0624 18010KT CAVOK TEMPO 0518/0606 BKN010 BECMG 0606/0609 19015G25KT BKN012 BECMG 0611/0614 BKN008 PROB30 TEMPO 0612/0620 RA=

    Metar: nil

  • Luxeuil (LFSX)

    Taf: TAF LFSX 052000Z NIL=

    Metar: nil

  • Eindhoven (EHEH)

    Taf: TAF EHEH 051750Z 0518/0624 20011KT 4500 BR SCT007 BKN009 TEMPO 0518/0523 3000 SCT003 BKN005 BECMG 0521/0600 22015G25KT TEMPO 0602/0622 4000 RADZ BKN004 OVC006 BECMG 0618/0621 7000 NSW SCT012 BKN018 TEMPO 0621/0624 4500 -SHRA SCT010 BKN015 SCT022CB=

    Metar: nil

  • Niederrhein (EDLV)

    Taf: TAF EDLV 051700Z 0518/0618 21009KT 7000 BKN010 TEMPO 0518/0521 4000 BR BKN008 BECMG 0521/0524 BKN005 BECMG 0600/0603 21015G25KT TEMPO 0612/0618 4000 RA=

    Metar: nil

  • Dortmund/Wickede (EDLW)

    Taf: TAF EDLW 051700Z 0518/0618 21010KT CAVOK BECMG 0600/0603 21015G25KT BECMG 0612/0615 BKN012 TEMPO 0612/0618 RA=

    Metar: nil

  • Stuttgart/Echterdingen (EDDS)

    Taf: TAF EDDS 051700Z 0518/0618 VRB02KT CAVOK PROB30 TEMPO 0601/0609 0400=

    Metar: METAR EDDS 051950Z VRB02KT CAVOK M03/M04 Q1022 NOSIG=

  • Basel-Mühlhausen (LFSB)

    Taf: TAF LFSB 051700Z 0518/0618 17004KT 6000 NSC BECMG 0518/0521 3000 BR PROB30 TEMPO 0521/0607 1200 BECMG 0608/0611 CAVOK=

    Metar: METAR LFSB 052000Z 17005KT 5000 BR NSC M00/M01 Q1023 NOSIG=

  • Lille (LFQQ)

    Taf: TAF LFQQ 051700Z 0518/0624 19013KT 4000 BR OVC002 PROB30 0518/0521 0500 FG VV/// TEMPO 0601/0621 1200 DZRA TEMPO 0611/0621 19017G27KT FM062100 26015G25KT 9999 SCT020=

    Metar: nil

  • Paris/Charles de Gaulle (LFPG)

    Taf: TAF AMD LFPG 052004Z 0520/0624 20007KT 3000 BR BKN004 TX09/0623Z TN01/0520Z TEMPO 0520/0606 0500 FG VV/// BECMG 0610/0612 4000 -RA BKN008 TEMPO 0612/0618 21015G25KT=

    Metar: nil

  • Paderborn/Lippstadt (EDLP)

    Taf: TAF EDLP 051700Z 0518/0618 21008KT CAVOK BECMG 0520/0523 21013KT BECMG 0603/0606 21015G25KT TEMPO 0614/0618 21020G30KT BKN012=

    Metar: nil

  • Paris/Le Bourget (LFPB)

    Taf: TAF AMD LFPB 052009Z 0520/0618 21005KT 3000 BR BKN008 TEMPO 0520/0604 1200 BR BKN004 TEMPO 0612/0618 21015G25KT=

    Metar: METAR LFPB 052000Z AUTO 16008KT 4700 BR OVC004 01/00 Q1023 BECMG BKN008=

  • Rotterdam (EHRD)

    Taf: TAF EHRD 051721Z 0518/0624 21014KT 2000 BR BKN002 TEMPO 0518/0521 1200 BECMG 0521/0524 21020G30KT 4000 -RADZ BR BKN006 PROB40 TEMPO 0600/0618 2500 RADZ BKN004 BECMG 0617/0620 23015G25KT 9999 NSW BKN010 BECMG 0618/0621 24012KT BKN018 TEMPO 0618/0624 6000 SHRA BKN014 SCT018CB PROB30 TEMPO 0620/0624 24020G30KT 4000 TSRA BKN010 SCT012CB=

    Metar: nil

  • Zürich/Kloten (LSZH)

    Taf: TAF LSZH 051725Z 0518/0624 19005KT 5000 BR OVC004 TX05/0613Z TNM02/0601Z TEMPO 0518/0520 OVC005 BECMG 0519/0522 3000 BR PROB40 0601/0606 PRFG OVC001 PROB30 0602/0606 0400 FZFG VV002 BECMG 0609/0611 6000 BKN006 BECMG 0611/0613 23008KT FEW010 PROB40 0614/0621 CAVOK BECMG 0621/0624 BKN060=

    Metar: METAR LSZH 051950Z 19004KT 160V240 3500 BR SCT003 OVC004 M00/M01 Q1024 NOSIG=

  • Oostende/Intl (EBOS)

    Taf: TAF EBOS 051720Z 0518/0624 20010KT 6000 BKN015 TEMPO 0518/0522 1200 BR BKN006 PROB40 TEMPO 0518/0522 0200 FG BKN001 BECMG 0521/0523 BKN012 TEMPO 0521/0612 3800 RA RADZ BKN008 BECMG 0522/0524 21017G33KT BECMG 0611/0613 SCT015 PROB30 TEMPO 0616/0621 4000 SHRA BKN014CB BECMG 0620/0622 26014KT=

    Metar: nil

  • Paris/Orly (LFPO)

    Taf: TAF AMD LFPO 051814Z 0518/0624 CNL=

    Metar: nil

  • Beauvais (LFOB)

    Taf: TAF LFOB 051700Z 0518/0618 21008KT 2000 BR OVC004 PROB30 TEMPO 0518/0602 0500 FG VV/// TEMPO 0605/0618 1200 DZRA TEMPO 0611/0618 21015G25KT=

    Metar: nil

  • Münster/Intl (EDDG)

    Taf: TAF EDDG 051700Z 0518/0618 20006KT 4500 BR BKN013 BECMG 0518/0521 8000 BKN008 TEMPO 0606/0618 21015G25KT PROB30 TEMPO 0612/0618 4500 RA=

    Metar: METAR EDDG 051950Z 21007KT 180V240 8000 BKN011 02/00 Q1017 NOSIG=

  • Illesheim (ETIK)

    Taf: TAF AMD ETIK 051830Z 0518/0621 20006KT 5000 BR BKN006 QNH3013INS TEMPO 0600/0606 3000 BR BECMG 0606/0607 21009KT 5000 BR SCT009 QNH2995INS TEMPO 0606/0611 3000 BR BKN008 BECMG 0617/0618 23012G18KT 9999 NSW BKN020 QNH2993INS TX06/0612Z TNM05/0602Z=

    Metar: nil

  • Duebendorf (LSMD)

    Taf: TAF LSMD 051625Z 0517/0623 VRB03KT 5000 BR OVC005 BECMG 0518/0521 3000 BR OVC003 PROB40 0600/0608 1000 PRFG OVC002 BECMG 0609/0611 6000 BKN006 BECMG 0611/0613 23008KT CAVOK=

    Metar: nil

  • Villacoublay (LFPV)

    Taf: TAF LFPV 052000Z 0521/0621 21005KT 0400 FZFG VV/// BECMG 0608/0610 20015KT 6000 RA OVC005=

    Metar: nil

  • Payerne (LSMP)

    Taf: TAF LSMP 051625Z 0517/0623 VRB02KT 3500 BR OVC006 BECMG 0518/0521 2500 BR OVC003 PROB40 0601/0608 0800 FZFG VV002 BECMG 0608/0611 4000 BR SCT006 BECMG 0611/0614 23010KT BECMG 0619/0621 VRB02KT=

    Metar: nil

  • Amsterdam/Schipol (EHAM)

    Taf: TAF COR EHAM 051738Z 0518/0624 21016KT 2500 BR BKN002 PROB40 0518/0524 1200 BECMG 0521/0524 21020G30KT 4000 -RADZ BKN006 PROB40 TEMPO 0600/0618 2500 RADZ BKN004 BECMG 0617/0620 23015G25KT 9999 NSW BKN010 BECMG 0618/0621 24012KT BKN018 TEMPO 0618/0624 6000 SHRA BKN014 SCT018CB PROB30 TEMPO 0620/0624 24020G30KT 4000 TSRA BKN010 SCT012CB=

    Metar: METAR EHAM 051955Z 20017KT 170V230 2300 BR BKN002 OVC003 04/04 Q1015 NOSIG=

  • Emmen (LSME)

    Taf: TAF AMD LSME 051814Z 0518/0623 VRB02KT 3500 BR OVC004 PROB40 0600/0608 0800 PRFG PROB30 0602/0606 0400 FZFG VV002 BECMG 0608/0611 6000 SCT010 BECMG 0612/0615 25007KT CAVOK BECMG 0618/0621 9999 BKN100=

    Metar: nil

  • Friedrichshafen (EDNY)

    Taf: TAF EDNY 051700Z 0518/0618 VRB03KT 6000 OVC006 BECMG 0518/0520 3500 BR BKN003 TEMPO 0520/0608 0400 FZFG VV001 BECMG 0609/0612 24005KT 6000 SCT003=

    Metar: nil

  • Alpnach (LSMA)

    Taf: TAF LSMA 051625Z 0517/0623 VRB03KT 5000 BR OVC003 BECMG 0522/0601 0800 PRFG PROB30 0602/0606 0400 FZFG VV002 BECMG 0606/0609 6000 SCT010 BECMG 0612/0615 CAVOK BECMG 0618/0621 9999 BKN100=

    Metar: nil

  • Meiringen (LSMM)

    Taf: TAF LSMM 051625Z 0517/0623 VRB03KT 8000 NSC BECMG 0521/0524 4000 BR BECMG 0600/0603 1200 PRFG PROB30 0603/0606 0400 FZFG VV002 BECMG 0607/0609 3000 BR BECMG 0609/0611 CAVOK BECMG 0611/0613 23008KT BECMG 0618/0621 9999 BKN100=

    Metar: nil

  • Nürnberg (EDDN)

    Taf: TAF EDDN 051700Z 0518/0618 14004KT 6000 BKN006 BECMG 0518/0520 BKN004 BECMG 0520/0522 2500 BR TEMPO 0600/0606 0800 FZFG VV001 BECMG 0606/0608 6000 BKN005 BECMG 0608/0610 SCT006=

    Metar: METAR EDDN 051950Z 18006KT 5000 BR OVC004 M01/M02 Q1023 BECMG 4000 BR=

  • Rouen (LFOP)

    Taf: TAF AMD LFOP 051909Z 0519/0618 18010KT 4000 BR OVC002 TEMPO 0519/0524 0400 FG VV/// TEMPO 0604/0618 1200 DZRA=

    Metar: nil

  • Evreux (LFOE)

    Taf: TAF LFOE 051715Z 0517/0615 CNL=

    Metar: nil

  • Erfurt/Bindersleben (EDDE)

    Taf: TAF EDDE 051700Z 0518/0618 23007KT CAVOK BECMG 0522/0601 23012KT BECMG 0606/0609 23015G25KT=

    Metar: nil